sensor_id;sensor_type;location;lat;lon;timestamp;pressure;altitude;pressure_sealevel;temperature;humidity
50087;BME280;35967;50.718;7.050;2024-01-27T00:07:04;102654.91;;;4.14;85.69
50087;BME280;35967;50.718;7.050;2024-01-27T00:17:08;102655.59;;;4.08;85.92
50087;BME280;35967;50.718;7.050;2024-01-27T00:27:12;102641.69;;;4.00;86.53
50087;BME280;35967;50.718;7.050;2024-01-27T00:37:17;102643.19;;;3.94;87.03
50087;BME280;35967;50.718;7.050;2024-01-27T00:47:20;102657.38;;;3.88;86.73
50087;BME280;35967;50.718;7.050;2024-01-27T00:57:24;102657.38;;;3.88;87.02
50087;BME280;35967;50.718;7.050;2024-01-27T01:07:27;102673.66;;;3.91;87.00
50087;BME280;35967;50.718;7.050;2024-01-27T01:17:32;102674.97;;;3.82;87.26
50087;BME280;35967;50.718;7.050;2024-01-27T01:27:35;102683.25;;;3.76;87.57
50087;BME280;35967;50.718;7.050;2024-01-27T01:37:40;102669.69;;;3.77;87.60
50087;BME280;35967;50.718;7.050;2024-01-27T01:47:43;102677.28;;;3.75;87.29
50087;BME280;35967;50.718;7.050;2024-01-27T01:57:48;102683.38;;;3.58;87.61
50087;BME280;35967;50.718;7.050;2024-01-27T02:07:52;102683.88;;;3.70;87.20
50087;BME280;35967;50.718;7.050;2024-01-27T02:17:59;102683.69;;;3.66;87.63
50087;BME280;35967;50.718;7.050;2024-01-27T02:28:05;102680.25;;;3.65;87.38
50087;BME280;35967;50.718;7.050;2024-01-27T02:38:09;102682.91;;;3.67;87.66
50087;BME280;35967;50.718;7.050;2024-01-27T02:48:13;102681.25;;;3.69;87.30
50087;BME280;35967;50.718;7.050;2024-01-27T02:58:18;102687.06;;;3.65;87.37
50087;BME280;35967;50.718;7.050;2024-01-27T03:08:22;102681.34;;;3.49;87.30
50087;BME280;35967;50.718;7.050;2024-01-27T03:18:25;102681.97;;;3.43;88.25
50087;BME280;35967;50.718;7.050;2024-01-27T03:28:29;102690.59;;;3.47;88.23
50087;BME280;35967;50.718;7.050;2024-01-27T03:38:33;102699.59;;;3.39;87.67
50087;BME280;35967;50.718;7.050;2024-01-27T03:48:39;102702.59;;;3.28;88.19
50087;BME280;35967;50.718;7.050;2024-01-27T03:58:42;102714.19;;;3.22;88.73
50087;BME280;35967;50.718;7.050;2024-01-27T04:08:46;102724.66;;;3.08;89.21
50087;BME280;35967;50.718;7.050;2024-01-27T04:18:49;102715.75;;;2.98;90.22
50087;BME280;35967;50.718;7.050;2024-01-27T04:28:54;102738.59;;;2.97;90.13
50087;BME280;35967;50.718;7.050;2024-01-27T04:38:56;102749.06;;;2.83;90.15
50087;BME280;35967;50.718;7.050;2024-01-27T04:49:02;102744.28;;;2.91;90.01
50087;BME280;35967;50.718;7.050;2024-01-27T04:59:05;102753.91;;;2.98;89.94
50087;BME280;35967;50.718;7.050;2024-01-27T05:09:09;102736.09;;;2.98;90.40
50087;BME280;35967;50.718;7.050;2024-01-27T05:19:12;102744.69;;;2.61;92.48
50087;BME280;35967;50.718;7.050;2024-01-27T05:29:18;102744.69;;;2.24;93.52
50087;BME280;35967;50.718;7.050;2024-01-27T05:39:22;102739.53;;;1.86;94.24
50087;BME280;35967;50.718;7.050;2024-01-27T05:49:26;102740.56;;;1.71;95.59
50087;BME280;35967;50.718;7.050;2024-01-27T05:59:29;102736.84;;;1.65;95.72
50087;BME280;35967;50.718;7.050;2024-01-27T06:09:34;102743.44;;;1.61;96.83
50087;BME280;35967;50.718;7.050;2024-01-27T06:19:37;102751.22;;;1.30;96.30
50087;BME280;35967;50.718;7.050;2024-01-27T06:29:42;102754.16;;;1.21;96.06
50087;BME280;35967;50.718;7.050;2024-01-27T06:39:45;102760.28;;;1.08;96.95
50087;BME280;35967;50.718;7.050;2024-01-27T06:49:51;102762.94;;;1.28;96.96
50087;BME280;35967;50.718;7.050;2024-01-27T06:59:54;102772.75;;;1.54;96.02
50087;BME280;35967;50.718;7.050;2024-01-27T07:09:59;102781.69;;;1.82;96.13
50087;BME280;35967;50.718;7.050;2024-01-27T07:20:03;102782.94;;;1.05;98.03
50087;BME280;35967;50.718;7.050;2024-01-27T07:30:09;102787.84;;;1.02;97.95
50087;BME280;35967;50.718;7.050;2024-01-27T07:40:13;102801.31;;;1.17;97.78
50087;BME280;35967;50.718;7.050;2024-01-27T07:50:19;102817.00;;;1.26;97.82
50087;BME280;35967;50.718;7.050;2024-01-27T08:00:22;102825.81;;;1.50;97.66
50087;BME280;35967;50.718;7.050;2024-01-27T08:10:27;102819.09;;;1.68;96.24
50087;BME280;35967;50.718;7.050;2024-01-27T08:20:30;102829.03;;;1.98;96.19
50087;BME280;35967;50.718;7.050;2024-01-27T08:30:34;102831.34;;;2.30;94.85
50087;BME280;35967;50.718;7.050;2024-01-27T08:40:37;102838.09;;;2.47;95.24
50087;BME280;35967;50.718;7.050;2024-01-27T08:50:42;102821.38;;;2.71;94.70
50087;BME280;35967;50.718;7.050;2024-01-27T09:00:45;102823.00;;;3.08;90.98
50087;BME280;35967;50.718;7.050;2024-01-27T09:10:49;102812.91;;;3.29;89.67
50087;BME280;35967;50.718;7.050;2024-01-27T09:20:54;102809.78;;;3.56;89.44
50087;BME280;35967;50.718;7.050;2024-01-27T09:30:58;102798.78;;;3.78;87.68
50087;BME280;35967;50.718;7.050;2024-01-27T09:41:02;102800.91;;;4.09;87.50
50087;BME280;35967;50.718;7.050;2024-01-27T09:51:08;102779.53;;;4.51;88.04
50087;BME280;35967;50.718;7.050;2024-01-27T10:01:12;102790.59;;;4.74;86.16
50087;BME280;35967;50.718;7.050;2024-01-27T10:11:16;102790.50;;;5.20;80.18
50087;BME280;35967;50.718;7.050;2024-01-27T10:21:20;102802.38;;;5.44;78.07
50087;BME280;35967;50.718;7.050;2024-01-27T10:31:28;102819.50;;;5.72;76.11
50087;BME280;35967;50.718;7.050;2024-01-27T10:41:31;102808.75;;;6.08;75.96
50087;BME280;35967;50.718;7.050;2024-01-27T10:51:35;102808.66;;;6.34;74.31
50087;BME280;35967;50.718;7.050;2024-01-27T11:01:40;102816.94;;;6.54;72.07
50087;BME280;35967;50.718;7.050;2024-01-27T11:11:46;102824.06;;;6.65;69.78
50087;BME280;35967;50.718;7.050;2024-01-27T11:21:59;102814.66;;;6.94;70.92
50087;BME280;35967;50.718;7.050;2024-01-27T11:32:04;102811.72;;;6.80;71.29
50087;BME280;35967;50.718;7.050;2024-01-27T11:42:08;102810.38;;;7.25;68.50
50087;BME280;35967;50.718;7.050;2024-01-27T11:52:14;102793.81;;;8.17;65.15
50087;BME280;35967;50.718;7.050;2024-01-27T12:02:18;102810.88;;;8.53;63.09
50087;BME280;35967;50.718;7.050;2024-01-27T12:12:23;102814.75;;;8.36;63.50
50087;BME280;35967;50.718;7.050;2024-01-27T12:22:27;102796.25;;;8.11;62.81
50087;BME280;35967;50.718;7.050;2024-01-27T12:32:32;102791.13;;;8.51;61.38
50087;BME280;35967;50.718;7.050;2024-01-27T12:42:36;102778.88;;;8.39;59.61
50087;BME280;35967;50.718;7.050;2024-01-27T12:52:40;102765.97;;;9.23;57.21
50087;BME280;35967;50.718;7.050;2024-01-27T13:02:43;102761.25;;;8.53;56.91
50087;BME280;35967;50.718;7.050;2024-01-27T13:12:48;102769.63;;;8.89;56.06
50087;BME280;35967;50.718;7.050;2024-01-27T13:22:50;102750.34;;;8.65;54.70
50087;BME280;35967;50.718;7.050;2024-01-27T13:32:56;102743.34;;;9.02;54.97
50087;BME280;35967;50.718;7.050;2024-01-27T13:43:00;102737.50;;;9.11;55.42
50087;BME280;35967;50.718;7.050;2024-01-27T13:53:05;102741.94;;;8.72;57.54
50087;BME280;35967;50.718;7.050;2024-01-27T14:03:08;102725.59;;;8.67;57.21
50087;BME280;35967;50.718;7.050;2024-01-27T14:13:13;102724.47;;;8.52;58.03
50087;BME280;35967;50.718;7.050;2024-01-27T14:23:17;102715.56;;;8.38;59.41
50087;BME280;35967;50.718;7.050;2024-01-27T14:33:22;102711.13;;;8.29;59.68
50087;BME280;35967;50.718;7.050;2024-01-27T14:43:26;102721.03;;;8.12;60.07
50087;BME280;35967;50.718;7.050;2024-01-27T14:53:48;102705.22;;;7.94;61.06
50087;BME280;35967;50.718;7.050;2024-01-27T15:03:51;102688.78;;;7.84;62.08
50087;BME280;35967;50.718;7.050;2024-01-27T15:13:56;102676.59;;;7.73;62.65
50087;BME280;35967;50.718;7.050;2024-01-27T15:23:59;102674.84;;;7.72;62.86
50087;BME280;35967;50.718;7.050;2024-01-27T15:34:04;102680.66;;;7.64;63.85
50087;BME280;35967;50.718;7.050;2024-01-27T15:44:08;102671.75;;;7.49;64.07
50087;BME280;35967;50.718;7.050;2024-01-27T15:54:13;102661.09;;;7.31;65.23
50087;BME280;35967;50.718;7.050;2024-01-27T16:04:16;102675.28;;;7.16;67.00
50087;BME280;35967;50.718;7.050;2024-01-27T16:14:22;102681.44;;;6.91;68.70
50087;BME280;35967;50.718;7.050;2024-01-27T16:24:25;102688.34;;;6.61;70.02
50087;BME280;35967;50.718;7.050;2024-01-27T16:34:30;102693.03;;;6.46;69.06
50087;BME280;35967;50.718;7.050;2024-01-27T16:44:33;102677.47;;;6.37;69.48
50087;BME280;35967;50.718;7.050;2024-01-27T16:54:38;102693.50;;;6.31;70.00
50087;BME280;35967;50.718;7.050;2024-01-27T17:04:42;102681.09;;;6.14;70.71
50087;BME280;35967;50.718;7.050;2024-01-27T17:14:47;102688.13;;;5.94;72.42
50087;BME280;35967;50.718;7.050;2024-01-27T17:24:56;102676.50;;;6.03;72.26
50087;BME280;35967;50.718;7.050;2024-01-27T17:35:05;102664.03;;;5.86;73.78
50087;BME280;35967;50.718;7.050;2024-01-27T17:45:10;102660.44;;;5.81;75.44
50087;BME280;35967;50.718;7.050;2024-01-27T17:55:15;102671.41;;;5.77;75.56
50087;BME280;35967;50.718;7.050;2024-01-27T18:05:18;102669.06;;;5.56;77.79
50087;BME280;35967;50.718;7.050;2024-01-27T18:15:23;102661.84;;;5.42;78.80
50087;BME280;35967;50.718;7.050;2024-01-27T18:25:27;102675.13;;;5.59;78.74
50087;BME280;35967;50.718;7.050;2024-01-27T18:35:31;102668.28;;;5.31;80.21
50087;BME280;35967;50.718;7.050;2024-01-27T18:45:34;102670.69;;;5.26;80.84
50087;BME280;35967;50.718;7.050;2024-01-27T18:55:42;102680.91;;;5.26;80.42
50087;BME280;35967;50.718;7.050;2024-01-27T19:05:46;102683.22;;;5.18;81.02
50087;BME280;35967;50.718;7.050;2024-01-27T19:15:51;102685.41;;;5.08;81.01
50087;BME280;35967;50.718;7.050;2024-01-27T19:25:56;102680.59;;;4.91;81.04
50087;BME280;35967;50.718;7.050;2024-01-27T19:36:03;102685.28;;;4.79;81.13
50087;BME280;35967;50.718;7.050;2024-01-27T19:46:08;102687.50;;;4.69;80.88
50087;BME280;35967;50.718;7.050;2024-01-27T19:56:12;102674.38;;;4.34;82.52
50087;BME280;35967;50.718;7.050;2024-01-27T20:06:16;102675.44;;;4.17;86.06
50087;BME280;35967;50.718;7.050;2024-01-27T20:16:21;102674.59;;;4.16;85.23
50087;BME280;35967;50.718;7.050;2024-01-27T20:26:24;102692.75;;;3.80;86.59
50087;BME280;35967;50.718;7.050;2024-01-27T20:36:28;102678.66;;;3.46;87.52
50087;BME280;35967;50.718;7.050;2024-01-27T20:46:32;102676.78;;;3.40;87.46
50087;BME280;35967;50.718;7.050;2024-01-27T20:56:36;102677.22;;;3.10;88.94
50087;BME280;35967;50.718;7.050;2024-01-27T21:06:39;102681.28;;;3.26;89.16
50087;BME280;35967;50.718;7.050;2024-01-27T21:16:43;102673.81;;;2.69;90.56
50087;BME280;35967;50.718;7.050;2024-01-27T21:26:46;102671.28;;;2.49;91.22
50087;BME280;35967;50.718;7.050;2024-01-27T21:36:51;102659.34;;;2.29;90.69
50087;BME280;35967;50.718;7.050;2024-01-27T21:46:54;102655.34;;;2.73;89.46
50087;BME280;35967;50.718;7.050;2024-01-27T21:56:59;102651.03;;;2.13;91.07
50087;BME280;35967;50.718;7.050;2024-01-27T22:07:02;102630.56;;;1.91;92.53
50087;BME280;35967;50.718;7.050;2024-01-27T22:17:07;102614.19;;;1.84;92.71
50087;BME280;35967;50.718;7.050;2024-01-27T22:27:10;102614.94;;;1.45;92.95
50087;BME280;35967;50.718;7.050;2024-01-27T22:37:15;102597.25;;;1.29;93.86
50087;BME280;35967;50.718;7.050;2024-01-27T22:47:18;102581.28;;;1.31;93.77
50087;BME280;35967;50.718;7.050;2024-01-27T22:57:23;102571.28;;;1.16;93.96
50087;BME280;35967;50.718;7.050;2024-01-27T23:07:26;102565.97;;;0.93;93.56
50087;BME280;35967;50.718;7.050;2024-01-27T23:17:31;102568.31;;;1.07;94.38
50087;BME280;35967;50.718;7.050;2024-01-27T23:27:34;102563.22;;;0.89;95.81
50087;BME280;35967;50.718;7.050;2024-01-27T23:37:38;102568.38;;;1.08;94.54
50087;BME280;35967;50.718;7.050;2024-01-27T23:47:45;102564.94;;;0.72;96.26
50087;BME280;35967;50.718;7.050;2024-01-27T23:57:50;102553.06;;;0.71;96.30
